sensor_id;sensor_type;location;lat;lon;timestamp;temperature;humidity
29207;DHT22;16247;50.840;4.382;2023-06-05T00:00:52;17.70;99.90
29207;DHT22;16247;50.840;4.382;2023-06-05T00:03:24;17.70;99.90
29207;DHT22;16247;50.840;4.382;2023-06-05T00:05:58;17.70;99.90
29207;DHT22;16247;50.840;4.382;2023-06-05T00:08:27;17.60;99.90
29207;DHT22;16247;50.840;4.382;2023-06-05T00:14:18;17.50;99.90
29207;DHT22;16247;50.840;4.382;2023-06-05T00:23:18;17.50;99.90
29207;DHT22;16247;50.840;4.382;2023-06-05T00:25:44;17.50;99.90
29207;DHT22;16247;50.840;4.382;2023-06-05T00:28:11;17.40;99.90
29207;DHT22;16247;50.840;4.382;2023-06-05T00:30:37;17.20;99.90
29207;DHT22;16247;50.840;4.382;2023-06-05T00:33:07;17.20;99.90
29207;DHT22;16247;50.840;4.382;2023-06-05T00:35:36;17.30;99.90
29207;DHT22;16247;50.840;4.382;2023-06-05T00:38:02;17.30;99.90
29207;DHT22;16247;50.840;4.382;2023-06-05T00:40:39;17.20;99.90
29207;DHT22;16247;50.840;4.382;2023-06-05T00:43:05;17.10;99.90
29207;DHT22;16247;50.840;4.382;2023-06-05T00:45:32;16.90;99.90
29207;DHT22;16247;50.840;4.382;2023-06-05T00:47:58;17.00;99.90
29207;DHT22;16247;50.840;4.382;2023-06-05T00:50:32;17.10;99.90
29207;DHT22;16247;50.840;4.382;2023-06-05T00:53:10;17.00;99.90
29207;DHT22;16247;50.840;4.382;2023-06-05T00:55:55;17.00;99.90
29207;DHT22;16247;50.840;4.382;2023-06-05T00:58:34;16.90;99.90
29207;DHT22;16247;50.840;4.382;2023-06-05T01:01:11;16.90;99.90
29207;DHT22;16247;50.840;4.382;2023-06-05T01:03:55;16.80;99.90
29207;DHT22;16247;50.840;4.382;2023-06-05T01:06:33;16.80;99.90
29207;DHT22;16247;50.840;4.382;2023-06-05T01:09:02;16.60;99.90
29207;DHT22;16247;50.840;4.382;2023-06-05T01:12:03;16.60;99.90
29207;DHT22;16247;50.840;4.382;2023-06-05T01:14:49;16.70;99.90
29207;DHT22;16247;50.840;4.382;2023-06-05T01:17:25;16.60;99.90
29207;DHT22;16247;50.840;4.382;2023-06-05T01:19:55;16.50;99.90
29207;DHT22;16247;50.840;4.382;2023-06-05T01:22:28;16.40;99.90
29207;DHT22;16247;50.840;4.382;2023-06-05T01:25:17;16.50;99.90
29207;DHT22;16247;50.840;4.382;2023-06-05T01:28:00;16.40;99.90
29207;DHT22;16247;50.840;4.382;2023-06-05T01:31:06;16.30;99.90
29207;DHT22;16247;50.840;4.382;2023-06-05T01:33:54;16.40;99.90
29207;DHT22;16247;50.840;4.382;2023-06-05T01:36:26;16.20;99.90
29207;DHT22;16247;50.840;4.382;2023-06-05T01:39:22;16.20;99.90
29207;DHT22;16247;50.840;4.382;2023-06-05T01:41:54;16.10;99.90
29207;DHT22;16247;50.840;4.382;2023-06-05T01:44:24;16.10;99.90
29207;DHT22;16247;50.840;4.382;2023-06-05T01:46:55;16.10;99.90
29207;DHT22;16247;50.840;4.382;2023-06-05T01:49:23;16.00;99.90
29207;DHT22;16247;50.840;4.382;2023-06-05T01:51:55;15.80;99.90
29207;DHT22;16247;50.840;4.382;2023-06-05T01:54:52;15.90;99.90
29207;DHT22;16247;50.840;4.382;2023-06-05T01:57:35;15.90;99.90
29207;DHT22;16247;50.840;4.382;2023-06-05T02:00:04;16.10;99.90
29207;DHT22;16247;50.840;4.382;2023-06-05T02:02:49;15.90;99.90
29207;DHT22;16247;50.840;4.382;2023-06-05T02:05:19;15.90;99.90
29207;DHT22;16247;50.840;4.382;2023-06-05T02:07:51;15.80;99.90
29207;DHT22;16247;50.840;4.382;2023-06-05T02:10:53;15.70;99.90
29207;DHT22;16247;50.840;4.382;2023-06-05T02:13:30;15.80;99.90
29207;DHT22;16247;50.840;4.382;2023-06-05T02:16:08;15.80;99.90
29207;DHT22;16247;50.840;4.382;2023-06-05T02:18:54;15.80;99.90
29207;DHT22;16247;50.840;4.382;2023-06-05T02:21:54;15.70;99.90
29207;DHT22;16247;50.840;4.382;2023-06-05T02:24:46;15.60;99.90
29207;DHT22;16247;50.840;4.382;2023-06-05T02:27:40;15.50;99.90
29207;DHT22;16247;50.840;4.382;2023-06-05T02:30:09;15.40;99.90
29207;DHT22;16247;50.840;4.382;2023-06-05T02:32:37;15.40;99.90
29207;DHT22;16247;50.840;4.382;2023-06-05T02:35:15;15.20;99.90
29207;DHT22;16247;50.840;4.382;2023-06-05T02:37:44;15.40;99.90
29207;DHT22;16247;50.840;4.382;2023-06-05T02:40:27;15.40;99.90
29207;DHT22;16247;50.840;4.382;2023-06-05T02:42:56;15.40;99.90
29207;DHT22;16247;50.840;4.382;2023-06-05T02:45:26;15.40;99.90
29207;DHT22;16247;50.840;4.382;2023-06-05T02:50:24;15.40;99.90
29207;DHT22;16247;50.840;4.382;2023-06-05T02:52:59;15.30;99.90
29207;DHT22;16247;50.840;4.382;2023-06-05T02:55:30;15.40;99.90
29207;DHT22;16247;50.840;4.382;2023-06-05T02:58:23;15.30;99.90
29207;DHT22;16247;50.840;4.382;2023-06-05T03:04:13;15.30;99.90
29207;DHT22;16247;50.840;4.382;2023-06-05T03:07:09;15.10;99.90
29207;DHT22;16247;50.840;4.382;2023-06-05T03:13:03;15.10;99.90
29207;DHT22;16247;50.840;4.382;2023-06-05T03:15:41;14.90;99.90
29207;DHT22;16247;50.840;4.382;2023-06-05T03:24:22;15.00;99.90
29207;DHT22;16247;50.840;4.382;2023-06-05T03:30:13;14.80;99.90
29207;DHT22;16247;50.840;4.382;2023-06-05T03:32:46;14.60;99.90
29207;DHT22;16247;50.840;4.382;2023-06-05T03:38:55;14.70;99.90
29207;DHT22;16247;50.840;4.382;2023-06-05T03:41:22;14.60;99.90
29207;DHT22;16247;50.840;4.382;2023-06-05T03:44:26;14.60;99.90
29207;DHT22;16247;50.840;4.382;2023-06-05T03:47:23;14.50;99.90
29207;DHT22;16247;50.840;4.382;2023-06-05T03:53:04;14.50;99.90
29207;DHT22;16247;50.840;4.382;2023-06-05T03:59:03;14.40;99.90
29207;DHT22;16247;50.840;4.382;2023-06-05T04:04:27;14.60;99.90
29207;DHT22;16247;50.840;4.382;2023-06-05T04:07:03;14.50;99.90
29207;DHT22;16247;50.840;4.382;2023-06-05T04:09:55;14.50;99.90
29207;DHT22;16247;50.840;4.382;2023-06-05T04:12:32;14.50;99.90
29207;DHT22;16247;50.840;4.382;2023-06-05T04:15:03;14.60;99.90
29207;DHT22;16247;50.840;4.382;2023-06-05T04:17:50;14.60;99.90
29207;DHT22;16247;50.840;4.382;2023-06-05T04:23:45;14.50;99.90
29207;DHT22;16247;50.840;4.382;2023-06-05T04:30:14;14.40;99.90
29207;DHT22;16247;50.840;4.382;2023-06-05T04:38:10;14.40;99.90
29207;DHT22;16247;50.840;4.382;2023-06-05T04:41:11;14.50;99.90
29207;DHT22;16247;50.840;4.382;2023-06-05T04:47:23;14.50;99.90
29207;DHT22;16247;50.840;4.382;2023-06-05T04:55:44;14.60;99.90
29207;DHT22;16247;50.840;4.382;2023-06-05T05:06:36;14.50;99.90
29207;DHT22;16247;50.840;4.382;2023-06-05T05:11:39;14.50;99.90
29207;DHT22;16247;50.840;4.382;2023-06-05T05:14:04;14.50;99.90
29207;DHT22;16247;50.840;4.382;2023-06-05T05:16:30;14.50;99.90
29207;DHT22;16247;50.840;4.382;2023-06-05T05:18:57;14.60;99.90
29207;DHT22;16247;50.840;4.382;2023-06-05T05:21:22;14.50;99.90
29207;DHT22;16247;50.840;4.382;2023-06-05T05:23:48;14.60;99.90
29207;DHT22;16247;50.840;4.382;2023-06-05T05:26:14;14.90;99.90
29207;DHT22;16247;50.840;4.382;2023-06-05T05:28:39;15.70;99.90
29207;DHT22;16247;50.840;4.382;2023-06-05T05:31:05;16.20;99.90
29207;DHT22;16247;50.840;4.382;2023-06-05T05:33:32;16.70;99.90
29207;DHT22;16247;50.840;4.382;2023-06-05T05:35:58;16.90;99.90
29207;DHT22;16247;50.840;4.382;2023-06-05T05:38:23;17.10;99.90
29207;DHT22;16247;50.840;4.382;2023-06-05T05:41:09;17.40;99.90
29207;DHT22;16247;50.840;4.382;2023-06-05T05:43:54;17.60;99.90
29207;DHT22;16247;50.840;4.382;2023-06-05T05:46:47;17.30;99.90
29207;DHT22;16247;50.840;4.382;2023-06-05T05:49:33;17.00;99.90
29207;DHT22;16247;50.840;4.382;2023-06-05T05:52:33;16.70;99.90
29207;DHT22;16247;50.840;4.382;2023-06-05T05:55:05;16.40;99.90
29207;DHT22;16247;50.840;4.382;2023-06-05T05:57:34;16.20;99.90
29207;DHT22;16247;50.840;4.382;2023-06-05T06:00:06;16.20;99.90
29207;DHT22;16247;50.840;4.382;2023-06-05T06:06:06;15.90;99.90
29207;DHT22;16247;50.840;4.382;2023-06-05T06:11:57;15.70;99.90
29207;DHT22;16247;50.840;4.382;2023-06-05T06:14:27;15.60;99.90
29207;DHT22;16247;50.840;4.382;2023-06-05T06:17:08;15.70;99.90
29207;DHT22;16247;50.840;4.382;2023-06-05T06:19:45;15.70;99.90
29207;DHT22;16247;50.840;4.382;2023-06-05T06:22:37;15.70;99.90
29207;DHT22;16247;50.840;4.382;2023-06-05T06:25:12;15.90;99.90
29207;DHT22;16247;50.840;4.382;2023-06-05T06:27:43;16.00;99.90
29207;DHT22;16247;50.840;4.382;2023-06-05T06:30:55;16.10;99.90
29207;DHT22;16247;50.840;4.382;2023-06-05T06:33:24;16.40;99.90
29207;DHT22;16247;50.840;4.382;2023-06-05T06:35:57;16.60;99.90
29207;DHT22;16247;50.840;4.382;2023-06-05T06:38:36;16.60;99.90
29207;DHT22;16247;50.840;4.382;2023-06-05T06:41:04;16.60;99.90
29207;DHT22;16247;50.840;4.382;2023-06-05T06:43:46;16.50;99.90
29207;DHT22;16247;50.840;4.382;2023-06-05T06:46:15;16.80;99.90
29207;DHT22;16247;50.840;4.382;2023-06-05T06:49:03;16.70;99.90
29207;DHT22;16247;50.840;4.382;2023-06-05T06:51:37;16.70;99.90
29207;DHT22;16247;50.840;4.382;2023-06-05T06:54:11;16.60;99.90
29207;DHT22;16247;50.840;4.382;2023-06-05T06:56:40;16.40;99.90
29207;DHT22;16247;50.840;4.382;2023-06-05T06:59:19;16.70;99.90
29207;DHT22;16247;50.840;4.382;2023-06-05T07:01:46;16.70;99.90
29207;DHT22;16247;50.840;4.382;2023-06-05T07:04:39;16.80;99.90
29207;DHT22;16247;50.840;4.382;2023-06-05T07:07:26;16.80;99.90
29207;DHT22;16247;50.840;4.382;2023-06-05T07:10:00;16.90;99.90
29207;DHT22;16247;50.840;4.382;2023-06-05T07:12:27;16.80;99.90
29207;DHT22;16247;50.840;4.382;2023-06-05T07:15:02;16.90;99.90
29207;DHT22;16247;50.840;4.382;2023-06-05T07:18:08;16.90;99.90
29207;DHT22;16247;50.840;4.382;2023-06-05T12:56:12;25.60;99.90
29207;DHT22;16247;50.840;4.382;2023-06-05T13:01:20;25.60;99.90
29207;DHT22;16247;50.840;4.382;2023-06-05T13:09:55;25.50;99.90
29207;DHT22;16247;50.840;4.382;2023-06-05T13:22:01;25.80;99.90
29207;DHT22;16247;50.840;4.382;2023-06-05T13:24:29;25.90;99.90
29207;DHT22;16247;50.840;4.382;2023-06-05T13:27:00;25.80;99.90
29207;DHT22;16247;50.840;4.382;2023-06-05T13:29:48;25.90;99.90
29207;DHT22;16247;50.840;4.382;2023-06-05T13:32:16;26.00;99.90
29207;DHT22;16247;50.840;4.382;2023-06-05T13:37:26;25.80;99.90
29207;DHT22;16247;50.840;4.382;2023-06-05T13:39:57;25.80;99.90
29207;DHT22;16247;50.840;4.382;2023-06-05T13:42:26;25.80;99.90
29207;DHT22;16247;50.840;4.382;2023-06-05T13:44:55;25.80;99.90
29207;DHT22;16247;50.840;4.382;2023-06-05T13:47:27;25.90;99.90
29207;DHT22;16247;50.840;4.382;2023-06-05T13:52:46;25.80;99.90
29207;DHT22;16247;50.840;4.382;2023-06-05T13:55:16;25.80;99.90
29207;DHT22;16247;50.840;4.382;2023-06-05T13:57:45;25.90;99.90
29207;DHT22;16247;50.840;4.382;2023-06-05T14:00:14;26.10;99.90
29207;DHT22;16247;50.840;4.382;2023-06-05T14:02:48;26.10;99.90
29207;DHT22;16247;50.840;4.382;2023-06-05T14:05:39;26.10;99.90
29207;DHT22;16247;50.840;4.382;2023-06-05T14:08:15;26.30;99.90
29207;DHT22;16247;50.840;4.382;2023-06-05T14:11:15;26.50;99.90
29207;DHT22;16247;50.840;4.382;2023-06-05T14:14:04;26.50;99.90
29207;DHT22;16247;50.840;4.382;2023-06-05T14:16:32;26.30;99.90
29207;DHT22;16247;50.840;4.382;2023-06-05T14:18:59;26.30;99.90
29207;DHT22;16247;50.840;4.382;2023-06-05T14:21:26;26.20;99.90
29207;DHT22;16247;50.840;4.382;2023-06-05T14:24:05;26.20;99.90
29207;DHT22;16247;50.840;4.382;2023-06-05T14:26:39;26.20;99.90
29207;DHT22;16247;50.840;4.382;2023-06-05T14:29:32;26.10;99.90
29207;DHT22;16247;50.840;4.382;2023-06-05T15:22:00;25.80;99.90
29207;DHT22;16247;50.840;4.382;2023-06-05T15:25:02;26.00;99.90
29207;DHT22;16247;50.840;4.382;2023-06-05T15:27:53;25.80;99.90
29207;DHT22;16247;50.840;4.382;2023-06-05T15:52:04;25.80;99.90
29207;DHT22;16247;50.840;4.382;2023-06-05T16:20:57;25.20;99.90
29207;DHT22;16247;50.840;4.382;2023-06-05T16:34:26;25.50;99.90
29207;DHT22;16247;50.840;4.382;2023-06-05T16:37:46;25.60;99.90
29207;DHT22;16247;50.840;4.382;2023-06-05T16:41:12;25.80;99.90
29207;DHT22;16247;50.840;4.382;2023-06-05T16:54:39;25.70;99.90
29207;DHT22;16247;50.840;4.382;2023-06-05T16:57:15;25.70;99.90
29207;DHT22;16247;50.840;4.382;2023-06-05T17:00:11;25.60;99.90
29207;DHT22;16247;50.840;4.382;2023-06-05T17:03:08;25.30;99.90
29207;DHT22;16247;50.840;4.382;2023-06-05T17:05:43;25.20;99.90
29207;DHT22;16247;50.840;4.382;2023-06-05T17:08:27;25.00;99.90
29207;DHT22;16247;50.840;4.382;2023-06-05T17:10:58;24.90;99.90
29207;DHT22;16247;50.840;4.382;2023-06-05T17:16:04;24.80;99.90
29207;DHT22;16247;50.840;4.382;2023-06-05T17:18:37;24.80;99.90
29207;DHT22;16247;50.840;4.382;2023-06-05T17:21:06;24.70;99.90
29207;DHT22;16247;50.840;4.382;2023-06-05T17:23:38;24.80;99.90
29207;DHT22;16247;50.840;4.382;2023-06-05T17:26:21;24.80;99.90
29207;DHT22;16247;50.840;4.382;2023-06-05T17:28:51;24.80;99.90
29207;DHT22;16247;50.840;4.382;2023-06-05T17:31:26;24.80;99.90
29207;DHT22;16247;50.840;4.382;2023-06-05T17:33:52;25.00;99.90
29207;DHT22;16247;50.840;4.382;2023-06-05T17:36:39;25.00;99.90
29207;DHT22;16247;50.840;4.382;2023-06-05T17:39:20;25.00;99.90
29207;DHT22;16247;50.840;4.382;2023-06-05T17:42:11;25.30;99.90
29207;DHT22;16247;50.840;4.382;2023-06-05T17:44:48;25.10;99.90
29207;DHT22;16247;50.840;4.382;2023-06-05T17:47:33;25.00;99.90
29207;DHT22;16247;50.840;4.382;2023-06-05T17:50:10;24.90;99.90
29207;DHT22;16247;50.840;4.382;2023-06-05T17:52:44;24.90;99.90
29207;DHT22;16247;50.840;4.382;2023-06-05T17:55:12;25.00;99.90
29207;DHT22;16247;50.840;4.382;2023-06-05T17:57:39;25.00;99.90
29207;DHT22;16247;50.840;4.382;2023-06-05T18:00:07;25.00;99.90
29207;DHT22;16247;50.840;4.382;2023-06-05T18:02:35;25.00;99.90
29207;DHT22;16247;50.840;4.382;2023-06-05T18:05:05;24.60;99.90
29207;DHT22;16247;50.840;4.382;2023-06-05T18:07:31;24.60;99.90
29207;DHT22;16247;50.840;4.382;2023-06-05T18:09:58;24.90;99.90
29207;DHT22;16247;50.840;4.382;2023-06-05T18:12:31;25.10;99.90
29207;DHT22;16247;50.840;4.382;2023-06-05T18:14:58;25.00;99.90
29207;DHT22;16247;50.840;4.382;2023-06-05T18:17:28;25.00;99.90
29207;DHT22;16247;50.840;4.382;2023-06-05T18:20:13;24.80;99.90
29207;DHT22;16247;50.840;4.382;2023-06-05T18:22:41;24.70;99.90
29207;DHT22;16247;50.840;4.382;2023-06-05T18:25:10;24.50;99.90
29207;DHT22;16247;50.840;4.382;2023-06-05T18:30:39;24.30;99.90
29207;DHT22;16247;50.840;4.382;2023-06-05T18:33:07;24.30;99.90
29207;DHT22;16247;50.840;4.382;2023-06-05T18:35:43;24.30;99.90
29207;DHT22;16247;50.840;4.382;2023-06-05T18:38:11;24.20;99.90
29207;DHT22;16247;50.840;4.382;2023-06-05T18:40:40;24.00;99.90
29207;DHT22;16247;50.840;4.382;2023-06-05T18:43:09;23.80;99.90
29207;DHT22;16247;50.840;4.382;2023-06-05T18:45:58;23.60;99.90
29207;DHT22;16247;50.840;4.382;2023-06-05T18:48:35;23.40;99.90
29207;DHT22;16247;50.840;4.382;2023-06-05T18:51:05;23.30;99.90
29207;DHT22;16247;50.840;4.382;2023-06-05T18:53:35;23.40;99.90
29207;DHT22;16247;50.840;4.382;2023-06-05T18:56:05;23.50;99.90
29207;DHT22;16247;50.840;4.382;2023-06-05T18:58:39;23.30;99.90
29207;DHT22;16247;50.840;4.382;2023-06-05T19:01:07;23.30;99.90
29207;DHT22;16247;50.840;4.382;2023-06-05T19:03:40;23.00;99.90
29207;DHT22;16247;50.840;4.382;2023-06-05T19:06:37;23.00;99.90
29207;DHT22;16247;50.840;4.382;2023-06-05T19:09:12;23.00;99.90
29207;DHT22;16247;50.840;4.382;2023-06-05T19:11:59;22.80;99.90
29207;DHT22;16247;50.840;4.382;2023-06-05T19:14:25;22.70;99.90
29207;DHT22;16247;50.840;4.382;2023-06-05T19:16:54;22.70;99.90
29207;DHT22;16247;50.840;4.382;2023-06-05T19:19:32;22.70;99.90
29207;DHT22;16247;50.840;4.382;2023-06-05T19:21:58;22.30;99.90
29207;DHT22;16247;50.840;4.382;2023-06-05T19:24:29;22.10;99.90
29207;DHT22;16247;50.840;4.382;2023-06-05T19:26:57;21.90;99.90
29207;DHT22;16247;50.840;4.382;2023-06-05T19:29:32;21.80;99.90
29207;DHT22;16247;50.840;4.382;2023-06-05T19:32:04;21.50;99.90
29207;DHT22;16247;50.840;4.382;2023-06-05T19:34:33;21.40;99.90
29207;DHT22;16247;50.840;4.382;2023-06-05T19:37:31;21.60;99.90
29207;DHT22;16247;50.840;4.382;2023-06-05T19:40:09;21.40;99.90
29207;DHT22;16247;50.840;4.382;2023-06-05T19:56:58;21.10;99.90
29207;DHT22;16247;50.840;4.382;2023-06-05T19:59:48;21.10;99.90
29207;DHT22;16247;50.840;4.382;2023-06-05T20:02:35;21.10;99.90
29207;DHT22;16247;50.840;4.382;2023-06-05T20:05:29;21.10;99.90
29207;DHT22;16247;50.840;4.382;2023-06-05T20:08:14;21.00;99.90
29207;DHT22;16247;50.840;4.382;2023-06-05T20:13:47;20.90;99.90
29207;DHT22;16247;50.840;4.382;2023-06-05T20:16:25;20.90;99.90
29207;DHT22;16247;50.840;4.382;2023-06-05T20:19:17;20.90;99.90
29207;DHT22;16247;50.840;4.382;2023-06-05T20:32:27;20.60;99.90
29207;DHT22;16247;50.840;4.382;2023-06-05T20:35:16;20.50;99.90
29207;DHT22;16247;50.840;4.382;2023-06-05T20:46:05;20.30;99.90
29207;DHT22;16247;50.840;4.382;2023-06-05T20:48:40;20.30;99.90
29207;DHT22;16247;50.840;4.382;2023-06-05T20:51:19;20.20;99.90
29207;DHT22;16247;50.840;4.382;2023-06-05T20:53:51;20.20;99.90
29207;DHT22;16247;50.840;4.382;2023-06-05T20:56:26;20.10;99.90
29207;DHT22;16247;50.840;4.382;2023-06-05T20:58:53;20.00;99.90
29207;DHT22;16247;50.840;4.382;2023-06-05T21:01:26;20.20;99.90
29207;DHT22;16247;50.840;4.382;2023-06-05T21:03:59;19.90;99.90
29207;DHT22;16247;50.840;4.382;2023-06-05T21:06:27;19.90;99.90
29207;DHT22;16247;50.840;4.382;2023-06-05T21:08:54;19.90;99.90
29207;DHT22;16247;50.840;4.382;2023-06-05T21:11:22;19.90;99.90
29207;DHT22;16247;50.840;4.382;2023-06-05T21:13:47;19.80;99.90
29207;DHT22;16247;50.840;4.382;2023-06-05T21:16:16;19.70;99.90
29207;DHT22;16247;50.840;4.382;2023-06-05T21:18:44;19.70;99.90
29207;DHT22;16247;50.840;4.382;2023-06-05T21:21:10;19.60;99.90
29207;DHT22;16247;50.840;4.382;2023-06-05T21:23:40;19.60;99.90
29207;DHT22;16247;50.840;4.382;2023-06-05T21:26:07;19.50;99.90
29207;DHT22;16247;50.840;4.382;2023-06-05T21:28:33;19.50;99.90
29207;DHT22;16247;50.840;4.382;2023-06-05T21:30:59;19.50;99.90
29207;DHT22;16247;50.840;4.382;2023-06-05T21:33:33;19.50;99.90
29207;DHT22;16247;50.840;4.382;2023-06-05T21:36:01;19.40;99.90
29207;DHT22;16247;50.840;4.382;2023-06-05T21:38:48;19.30;99.90
29207;DHT22;16247;50.840;4.382;2023-06-05T21:41:14;19.40;99.90
29207;DHT22;16247;50.840;4.382;2023-06-05T21:43:39;19.30;99.90
29207;DHT22;16247;50.840;4.382;2023-06-05T21:46:07;19.20;99.90
29207;DHT22;16247;50.840;4.382;2023-06-05T21:48:35;19.20;99.90
29207;DHT22;16247;50.840;4.382;2023-06-05T21:51:04;19.10;99.90
29207;DHT22;16247;50.840;4.382;2023-06-05T21:53:33;18.90;99.90
29207;DHT22;16247;50.840;4.382;2023-06-05T21:55:58;18.80;99.90
29207;DHT22;16247;50.840;4.382;2023-06-05T21:58:25;18.80;99.90
29207;DHT22;16247;50.840;4.382;2023-06-05T22:00:53;18.60;99.90
29207;DHT22;16247;50.840;4.382;2023-06-05T22:03:19;18.70;99.90
29207;DHT22;16247;50.840;4.382;2023-06-05T22:05:51;18.70;99.90
29207;DHT22;16247;50.840;4.382;2023-06-05T22:08:23;18.60;99.90
29207;DHT22;16247;50.840;4.382;2023-06-05T22:10:51;18.70;99.90
29207;DHT22;16247;50.840;4.382;2023-06-05T22:13:18;18.60;99.90
29207;DHT22;16247;50.840;4.382;2023-06-05T22:15:50;18.50;99.90
29207;DHT22;16247;50.840;4.382;2023-06-05T22:18:21;18.60;99.90
29207;DHT22;16247;50.840;4.382;2023-06-05T22:20:57;18.60;99.90
29207;DHT22;16247;50.840;4.382;2023-06-05T22:23:32;18.70;99.90
29207;DHT22;16247;50.840;4.382;2023-06-05T22:25:59;18.60;99.90
29207;DHT22;16247;50.840;4.382;2023-06-05T22:28:24;18.70;99.90
29207;DHT22;16247;50.840;4.382;2023-06-05T22:30:57;18.40;99.90
29207;DHT22;16247;50.840;4.382;2023-06-05T22:33:28;18.30;99.90
29207;DHT22;16247;50.840;4.382;2023-06-05T22:35:57;18.40;99.90
29207;DHT22;16247;50.840;4.382;2023-06-05T22:38:23;18.30;99.90
29207;DHT22;16247;50.840;4.382;2023-06-05T22:40:57;18.40;99.90
29207;DHT22;16247;50.840;4.382;2023-06-05T22:43:29;18.20;99.90
29207;DHT22;16247;50.840;4.382;2023-06-05T22:46:02;18.20;99.90
29207;DHT22;16247;50.840;4.382;2023-06-05T22:48:39;18.20;99.90
29207;DHT22;16247;50.840;4.382;2023-06-05T22:51:09;18.10;99.90
29207;DHT22;16247;50.840;4.382;2023-06-05T22:53:48;18.00;99.90
29207;DHT22;16247;50.840;4.382;2023-06-05T22:56:15;18.00;99.90
29207;DHT22;16247;50.840;4.382;2023-06-05T22:58:46;18.10;99.90
29207;DHT22;16247;50.840;4.382;2023-06-05T23:01:18;17.90;99.90
29207;DHT22;16247;50.840;4.382;2023-06-05T23:03:44;17.90;99.90
29207;DHT22;16247;50.840;4.382;2023-06-05T23:06:11;17.70;99.90
29207;DHT22;16247;50.840;4.382;2023-06-05T23:08:40;17.80;99.90
29207;DHT22;16247;50.840;4.382;2023-06-05T23:11:09;17.70;99.90
29207;DHT22;16247;50.840;4.382;2023-06-05T23:13:36;17.70;99.90
29207;DHT22;16247;50.840;4.382;2023-06-05T23:16:05;17.60;99.90
29207;DHT22;16247;50.840;4.382;2023-06-05T23:18:50;17.70;99.90
29207;DHT22;16247;50.840;4.382;2023-06-05T23:21:27;17.60;99.90
29207;DHT22;16247;50.840;4.382;2023-06-05T23:23:55;17.50;99.90
29207;DHT22;16247;50.840;4.382;2023-06-05T23:26:24;17.60;99.90
29207;DHT22;16247;50.840;4.382;2023-06-05T23:28:51;17.50;99.90
29207;DHT22;16247;50.840;4.382;2023-06-05T23:31:25;17.50;99.90
29207;DHT22;16247;50.840;4.382;2023-06-05T23:33:56;17.50;99.90
29207;DHT22;16247;50.840;4.382;2023-06-05T23:36:21;17.40;99.90
29207;DHT22;16247;50.840;4.382;2023-06-05T23:38:49;17.30;99.90
29207;DHT22;16247;50.840;4.382;2023-06-05T23:41:16;17.30;99.90
29207;DHT22;16247;50.840;4.382;2023-06-05T23:43:43;17.20;99.90
29207;DHT22;16247;50.840;4.382;2023-06-05T23:46:09;17.20;99.90
29207;DHT22;16247;50.840;4.382;2023-06-05T23:48:43;17.20;99.90
29207;DHT22;16247;50.840;4.382;2023-06-05T23:51:11;17.00;99.90
29207;DHT22;16247;50.840;4.382;2023-06-05T23:53:40;17.00;99.90
29207;DHT22;16247;50.840;4.382;2023-06-05T23:56:09;16.90;99.90
29207;DHT22;16247;50.840;4.382;2023-06-05T23:58:41;17.00;99.90
